sensor_id;sensor_type;location;lat;lon;timestamp;temperature;humidity
53045;DHT22;38930;52.766;6.884;2023-04-15T00:00:45;7.40;99.90
53045;DHT22;38930;52.766;6.884;2023-04-15T00:03:11;7.20;99.90
53045;DHT22;38930;52.766;6.884;2023-04-15T00:05:36;7.20;99.90
53045;DHT22;38930;52.766;6.884;2023-04-15T00:08:02;7.20;99.90
53045;DHT22;38930;52.766;6.884;2023-04-15T00:10:28;7.20;99.90
53045;DHT22;38930;52.766;6.884;2023-04-15T00:12:54;7.10;99.90
53045;DHT22;38930;52.766;6.884;2023-04-15T00:15:19;7.00;99.90
53045;DHT22;38930;52.766;6.884;2023-04-15T00:17:45;7.00;99.90
53045;DHT22;38930;52.766;6.884;2023-04-15T00:20:11;7.00;99.90
53045;DHT22;38930;52.766;6.884;2023-04-15T00:22:37;6.90;99.90
53045;DHT22;38930;52.766;6.884;2023-04-15T00:25:02;6.90;99.90
53045;DHT22;38930;52.766;6.884;2023-04-15T00:27:28;6.90;99.90
53045;DHT22;38930;52.766;6.884;2023-04-15T00:29:54;6.80;99.90
53045;DHT22;38930;52.766;6.884;2023-04-15T00:32:20;6.80;99.90
53045;DHT22;38930;52.766;6.884;2023-04-15T00:34:46;6.80;99.90
53045;DHT22;38930;52.766;6.884;2023-04-15T00:37:12;6.80;99.90
53045;DHT22;38930;52.766;6.884;2023-04-15T00:39:38;6.70;99.90
53045;DHT22;38930;52.766;6.884;2023-04-15T00:42:04;6.70;99.90
53045;DHT22;38930;52.766;6.884;2023-04-15T00:44:30;6.90;99.90
53045;DHT22;38930;52.766;6.884;2023-04-15T00:46:56;6.60;99.90
53045;DHT22;38930;52.766;6.884;2023-04-15T00:49:22;6.60;99.90
53045;DHT22;38930;52.766;6.884;2023-04-15T00:51:49;6.70;99.90
53045;DHT22;38930;52.766;6.884;2023-04-15T00:54:14;6.70;99.90
53045;DHT22;38930;52.766;6.884;2023-04-15T00:56:41;6.70;99.90
53045;DHT22;38930;52.766;6.884;2023-04-15T00:59:07;6.70;99.90
53045;DHT22;38930;52.766;6.884;2023-04-15T01:01:36;7.40;99.90
53045;DHT22;38930;52.766;6.884;2023-04-15T01:04:03;6.70;99.90
53045;DHT22;38930;52.766;6.884;2023-04-15T01:06:30;6.70;99.90
53045;DHT22;38930;52.766;6.884;2023-04-15T01:08:57;6.70;99.90
53045;DHT22;38930;52.766;6.884;2023-04-15T01:11:23;6.70;99.90
53045;DHT22;38930;52.766;6.884;2023-04-15T01:13:52;6.70;99.90
53045;DHT22;38930;52.766;6.884;2023-04-15T01:16:19;6.70;99.90
53045;DHT22;38930;52.766;6.884;2023-04-15T01:18:45;6.60;99.90
53045;DHT22;38930;52.766;6.884;2023-04-15T01:21:11;6.60;99.90
53045;DHT22;38930;52.766;6.884;2023-04-15T01:23:38;6.60;99.90
53045;DHT22;38930;52.766;6.884;2023-04-15T01:26:05;6.60;99.90
53045;DHT22;38930;52.766;6.884;2023-04-15T01:28:31;6.50;99.90
53045;DHT22;38930;52.766;6.884;2023-04-15T01:31:13;6.50;99.90
53045;DHT22;38930;52.766;6.884;2023-04-15T01:33:40;6.40;99.90
53045;DHT22;38930;52.766;6.884;2023-04-15T01:36:08;6.40;99.90
53045;DHT22;38930;52.766;6.884;2023-04-15T01:38:35;6.40;99.90
53045;DHT22;38930;52.766;6.884;2023-04-15T01:41:01;6.30;99.90
53045;DHT22;38930;52.766;6.884;2023-04-15T01:43:28;6.30;99.90
53045;DHT22;38930;52.766;6.884;2023-04-15T01:45:54;6.20;99.90
53045;DHT22;38930;52.766;6.884;2023-04-15T01:48:21;6.20;99.90
53045;DHT22;38930;52.766;6.884;2023-04-15T01:50:47;6.20;99.90
53045;DHT22;38930;52.766;6.884;2023-04-15T01:53:13;6.10;99.90
53045;DHT22;38930;52.766;6.884;2023-04-15T01:55:38;6.10;99.90
53045;DHT22;38930;52.766;6.884;2023-04-15T01:58:04;6.10;99.90
53045;DHT22;38930;52.766;6.884;2023-04-15T02:00:30;6.00;99.90
53045;DHT22;38930;52.766;6.884;2023-04-15T02:02:57;6.00;99.90
53045;DHT22;38930;52.766;6.884;2023-04-15T02:05:23;6.00;99.90
53045;DHT22;38930;52.766;6.884;2023-04-15T02:07:49;5.90;99.90
53045;DHT22;38930;52.766;6.884;2023-04-15T02:10:15;5.90;99.90
53045;DHT22;38930;52.766;6.884;2023-04-15T02:12:41;5.90;99.90
53045;DHT22;38930;52.766;6.884;2023-04-15T02:15:07;5.90;99.90
53045;DHT22;38930;52.766;6.884;2023-04-15T02:17:36;5.90;99.90
53045;DHT22;38930;52.766;6.884;2023-04-15T02:20:03;5.80;99.90
53045;DHT22;38930;52.766;6.884;2023-04-15T02:22:33;5.80;99.90
53045;DHT22;38930;52.766;6.884;2023-04-15T02:24:59;5.80;99.90
53045;DHT22;38930;52.766;6.884;2023-04-15T02:27:24;6.00;99.90
53045;DHT22;38930;52.766;6.884;2023-04-15T02:29:50;5.80;99.90
53045;DHT22;38930;52.766;6.884;2023-04-15T02:32:19;6.50;99.90
53045;DHT22;38930;52.766;6.884;2023-04-15T02:34:47;5.70;99.90
53045;DHT22;38930;52.766;6.884;2023-04-15T02:37:13;5.70;99.90
53045;DHT22;38930;52.766;6.884;2023-04-15T02:39:39;5.60;99.90
53045;DHT22;38930;52.766;6.884;2023-04-15T02:42:04;5.60;99.90
53045;DHT22;38930;52.766;6.884;2023-04-15T02:44:33;5.60;99.90
53045;DHT22;38930;52.766;6.884;2023-04-15T02:47:00;5.60;99.90
53045;DHT22;38930;52.766;6.884;2023-04-15T02:49:26;5.50;99.90
53045;DHT22;38930;52.766;6.884;2023-04-15T02:51:54;5.60;99.90
53045;DHT22;38930;52.766;6.884;2023-04-15T02:54:20;5.50;99.90
53045;DHT22;38930;52.766;6.884;2023-04-15T02:56:47;5.70;99.90
53045;DHT22;38930;52.766;6.884;2023-04-15T02:59:13;5.50;99.90
53045;DHT22;38930;52.766;6.884;2023-04-15T03:01:39;5.40;99.90
53045;DHT22;38930;52.766;6.884;2023-04-15T03:04:04;5.40;99.90
53045;DHT22;38930;52.766;6.884;2023-04-15T03:06:32;5.30;99.90
53045;DHT22;38930;52.766;6.884;2023-04-15T03:08:57;5.20;99.90
53045;DHT22;38930;52.766;6.884;2023-04-15T03:11:24;5.20;99.90
53045;DHT22;38930;52.766;6.884;2023-04-15T03:13:51;5.10;99.90
53045;DHT22;38930;52.766;6.884;2023-04-15T03:16:17;5.10;99.90
53045;DHT22;38930;52.766;6.884;2023-04-15T03:18:42;5.00;99.90
53045;DHT22;38930;52.766;6.884;2023-04-15T03:21:08;5.00;99.90
53045;DHT22;38930;52.766;6.884;2023-04-15T03:23:33;4.90;99.90
53045;DHT22;38930;52.766;6.884;2023-04-15T03:26:03;4.90;99.90
53045;DHT22;38930;52.766;6.884;2023-04-15T03:28:29;4.80;99.90
53045;DHT22;38930;52.766;6.884;2023-04-15T03:30:55;4.80;99.90
53045;DHT22;38930;52.766;6.884;2023-04-15T03:33:21;4.80;99.90
53045;DHT22;38930;52.766;6.884;2023-04-15T03:35:46;4.70;99.90
53045;DHT22;38930;52.766;6.884;2023-04-15T03:38:12;4.70;99.90
53045;DHT22;38930;52.766;6.884;2023-04-15T03:40:39;4.60;99.90
53045;DHT22;38930;52.766;6.884;2023-04-15T03:43:05;4.60;99.90
53045;DHT22;38930;52.766;6.884;2023-04-15T03:45:31;4.60;99.90
53045;DHT22;38930;52.766;6.884;2023-04-15T03:47:57;4.60;99.90
53045;DHT22;38930;52.766;6.884;2023-04-15T03:50:22;4.60;99.90
53045;DHT22;38930;52.766;6.884;2023-04-15T03:52:48;4.50;99.90
53045;DHT22;38930;52.766;6.884;2023-04-15T03:55:14;4.50;99.90
53045;DHT22;38930;52.766;6.884;2023-04-15T03:57:40;4.50;99.90
53045;DHT22;38930;52.766;6.884;2023-04-15T04:00:07;4.40;99.90
53045;DHT22;38930;52.766;6.884;2023-04-15T04:02:33;4.40;99.90
53045;DHT22;38930;52.766;6.884;2023-04-15T04:04:59;4.40;99.90
53045;DHT22;38930;52.766;6.884;2023-04-15T04:07:25;4.40;99.90
53045;DHT22;38930;52.766;6.884;2023-04-15T04:09:50;4.30;99.90
53045;DHT22;38930;52.766;6.884;2023-04-15T04:12:16;4.30;99.90
53045;DHT22;38930;52.766;6.884;2023-04-15T04:14:42;4.30;99.90
53045;DHT22;38930;52.766;6.884;2023-04-15T04:17:07;4.20;99.90
53045;DHT22;38930;52.766;6.884;2023-04-15T04:19:33;4.20;99.90
53045;DHT22;38930;52.766;6.884;2023-04-15T04:21:59;4.20;99.90
53045;DHT22;38930;52.766;6.884;2023-04-15T04:24:25;4.70;99.90
53045;DHT22;38930;52.766;6.884;2023-04-15T04:26:50;4.10;99.90
53045;DHT22;38930;52.766;6.884;2023-04-15T04:29:16;4.10;99.90
53045;DHT22;38930;52.766;6.884;2023-04-15T04:31:42;4.00;99.90
53045;DHT22;38930;52.766;6.884;2023-04-15T04:34:07;4.60;99.90
53045;DHT22;38930;52.766;6.884;2023-04-15T04:36:33;4.00;99.90
53045;DHT22;38930;52.766;6.884;2023-04-15T04:38:58;4.00;99.90
53045;DHT22;38930;52.766;6.884;2023-04-15T04:41:25;3.90;99.90
53045;DHT22;38930;52.766;6.884;2023-04-15T04:43:51;3.90;99.90
53045;DHT22;38930;52.766;6.884;2023-04-15T04:46:17;3.90;99.90
53045;DHT22;38930;52.766;6.884;2023-04-15T04:48:42;3.90;99.90
53045;DHT22;38930;52.766;6.884;2023-04-15T04:51:08;3.90;99.90
53045;DHT22;38930;52.766;6.884;2023-04-15T04:53:34;3.90;99.90
53045;DHT22;38930;52.766;6.884;2023-04-15T04:56:00;3.90;99.90
53045;DHT22;38930;52.766;6.884;2023-04-15T04:58:26;3.90;99.90
53045;DHT22;38930;52.766;6.884;2023-04-15T05:00:51;3.90;99.90
53045;DHT22;38930;52.766;6.884;2023-04-15T05:03:17;3.90;99.90
53045;DHT22;38930;52.766;6.884;2023-04-15T05:05:43;3.90;99.90
53045;DHT22;38930;52.766;6.884;2023-04-15T05:08:08;3.90;99.90
53045;DHT22;38930;52.766;6.884;2023-04-15T05:10:34;3.90;99.90
53045;DHT22;38930;52.766;6.884;2023-04-15T05:13:00;3.90;99.90
53045;DHT22;38930;52.766;6.884;2023-04-15T05:15:26;3.90;99.90
53045;DHT22;38930;52.766;6.884;2023-04-15T05:17:51;3.90;99.90
53045;DHT22;38930;52.766;6.884;2023-04-15T05:20:17;4.50;99.90
53045;DHT22;38930;52.766;6.884;2023-04-15T05:22:42;4.30;99.90
53045;DHT22;38930;52.766;6.884;2023-04-15T05:25:08;4.00;99.90
53045;DHT22;38930;52.766;6.884;2023-04-15T05:27:34;4.10;99.90
53045;DHT22;38930;52.766;6.884;2023-04-15T05:30:00;4.10;99.90
53045;DHT22;38930;52.766;6.884;2023-04-15T05:32:26;4.20;99.90
53045;DHT22;38930;52.766;6.884;2023-04-15T05:34:51;4.20;99.90
53045;DHT22;38930;52.766;6.884;2023-04-15T05:37:17;4.20;99.90
53045;DHT22;38930;52.766;6.884;2023-04-15T05:39:45;4.30;99.90
53045;DHT22;38930;52.766;6.884;2023-04-15T05:42:11;4.30;99.90
53045;DHT22;38930;52.766;6.884;2023-04-15T05:44:36;4.40;99.90
53045;DHT22;38930;52.766;6.884;2023-04-15T05:47:02;4.50;99.90
53045;DHT22;38930;52.766;6.884;2023-04-15T05:49:28;4.50;99.90
53045;DHT22;38930;52.766;6.884;2023-04-15T05:51:54;4.50;99.90
53045;DHT22;38930;52.766;6.884;2023-04-15T05:54:19;4.60;99.90
53045;DHT22;38930;52.766;6.884;2023-04-15T05:56:47;4.70;99.90
53045;DHT22;38930;52.766;6.884;2023-04-15T05:59:13;4.80;99.90
53045;DHT22;38930;52.766;6.884;2023-04-15T06:01:39;4.90;99.90
53045;DHT22;38930;52.766;6.884;2023-04-15T06:04:05;4.90;99.90
53045;DHT22;38930;52.766;6.884;2023-04-15T06:06:31;5.00;99.90
53045;DHT22;38930;52.766;6.884;2023-04-15T06:08:59;5.10;99.90
53045;DHT22;38930;52.766;6.884;2023-04-15T06:11:25;5.20;99.90
53045;DHT22;38930;52.766;6.884;2023-04-15T06:13:51;5.30;99.90
53045;DHT22;38930;52.766;6.884;2023-04-15T06:16:17;6.30;99.90
53045;DHT22;38930;52.766;6.884;2023-04-15T06:18:42;5.60;99.90
53045;DHT22;38930;52.766;6.884;2023-04-15T06:21:09;5.70;99.90
53045;DHT22;38930;52.766;6.884;2023-04-15T06:23:34;5.80;99.90
53045;DHT22;38930;52.766;6.884;2023-04-15T06:26:01;5.90;99.90
53045;DHT22;38930;52.766;6.884;2023-04-15T06:28:27;6.70;99.90
53045;DHT22;38930;52.766;6.884;2023-04-15T06:30:53;6.30;99.90
53045;DHT22;38930;52.766;6.884;2023-04-15T06:33:19;6.30;99.90
53045;DHT22;38930;52.766;6.884;2023-04-15T06:35:44;6.30;99.90
53045;DHT22;38930;52.766;6.884;2023-04-15T06:38:10;6.40;99.90
53045;DHT22;38930;52.766;6.884;2023-04-15T06:40:36;6.50;99.90
53045;DHT22;38930;52.766;6.884;2023-04-15T06:43:02;6.50;99.90
53045;DHT22;38930;52.766;6.884;2023-04-15T06:45:29;7.20;99.90
53045;DHT22;38930;52.766;6.884;2023-04-15T06:47:55;6.70;99.90
53045;DHT22;38930;52.766;6.884;2023-04-15T06:50:21;6.70;99.90
53045;DHT22;38930;52.766;6.884;2023-04-15T06:52:47;6.80;99.90
53045;DHT22;38930;52.766;6.884;2023-04-15T06:55:13;6.90;99.90
53045;DHT22;38930;52.766;6.884;2023-04-15T06:57:39;7.50;99.90
53045;DHT22;38930;52.766;6.884;2023-04-15T07:00:05;7.00;99.90
53045;DHT22;38930;52.766;6.884;2023-04-15T07:02:32;6.90;99.90
53045;DHT22;38930;52.766;6.884;2023-04-15T07:04:57;6.90;99.90
53045;DHT22;38930;52.766;6.884;2023-04-15T07:07:23;7.00;99.90
53045;DHT22;38930;52.766;6.884;2023-04-15T07:09:50;7.00;99.90
53045;DHT22;38930;52.766;6.884;2023-04-15T07:12:16;7.00;99.90
53045;DHT22;38930;52.766;6.884;2023-04-15T07:14:42;7.00;99.90
53045;DHT22;38930;52.766;6.884;2023-04-15T07:17:08;7.10;99.90
53045;DHT22;38930;52.766;6.884;2023-04-15T07:19:34;7.20;99.90
53045;DHT22;38930;52.766;6.884;2023-04-15T07:22:00;7.20;99.90
53045;DHT22;38930;52.766;6.884;2023-04-15T07:24:26;7.30;99.90
53045;DHT22;38930;52.766;6.884;2023-04-15T07:26:54;8.00;99.90
53045;DHT22;38930;52.766;6.884;2023-04-15T07:29:23;7.50;99.90
53045;DHT22;38930;52.766;6.884;2023-04-15T07:31:49;7.60;99.90
53045;DHT22;38930;52.766;6.884;2023-04-15T07:34:15;7.70;99.90
53045;DHT22;38930;52.766;6.884;2023-04-15T07:36:41;7.80;99.90
53045;DHT22;38930;52.766;6.884;2023-04-15T07:39:07;7.90;99.90
53045;DHT22;38930;52.766;6.884;2023-04-15T07:41:33;8.00;99.90
53045;DHT22;38930;52.766;6.884;2023-04-15T07:43:58;8.00;99.90
53045;DHT22;38930;52.766;6.884;2023-04-15T07:46:24;8.10;99.90
53045;DHT22;38930;52.766;6.884;2023-04-15T07:48:52;8.30;99.90
53045;DHT22;38930;52.766;6.884;2023-04-15T07:51:18;8.20;99.90
53045;DHT22;38930;52.766;6.884;2023-04-15T07:53:43;8.30;99.90
53045;DHT22;38930;52.766;6.884;2023-04-15T07:56:09;8.30;99.90
53045;DHT22;38930;52.766;6.884;2023-04-15T07:58:35;8.40;99.90
53045;DHT22;38930;52.766;6.884;2023-04-15T08:01:03;9.10;99.90
53045;DHT22;38930;52.766;6.884;2023-04-15T08:03:28;8.60;99.90
53045;DHT22;38930;52.766;6.884;2023-04-15T08:05:54;8.60;99.90
53045;DHT22;38930;52.766;6.884;2023-04-15T08:08:20;8.70;99.90
53045;DHT22;38930;52.766;6.884;2023-04-15T08:10:45;8.80;99.90
53045;DHT22;38930;52.766;6.884;2023-04-15T08:13:11;8.90;99.90
53045;DHT22;38930;52.766;6.884;2023-04-15T08:15:37;9.10;99.90
53045;DHT22;38930;52.766;6.884;2023-04-15T08:18:03;9.00;99.90
53045;DHT22;38930;52.766;6.884;2023-04-15T08:20:28;9.10;99.90
53045;DHT22;38930;52.766;6.884;2023-04-15T08:22:54;9.30;99.90
53045;DHT22;38930;52.766;6.884;2023-04-15T08:25:20;9.10;99.90
53045;DHT22;38930;52.766;6.884;2023-04-15T08:27:46;9.10;99.90
53045;DHT22;38930;52.766;6.884;2023-04-15T08:30:12;9.70;99.90
53045;DHT22;38930;52.766;6.884;2023-04-15T08:32:37;9.30;99.90
53045;DHT22;38930;52.766;6.884;2023-04-15T08:35:03;9.40;99.90
53045;DHT22;38930;52.766;6.884;2023-04-15T08:37:29;9.40;99.90
53045;DHT22;38930;52.766;6.884;2023-04-15T08:39:54;9.50;99.90
53045;DHT22;38930;52.766;6.884;2023-04-15T08:42:27;9.60;99.90
53045;DHT22;38930;52.766;6.884;2023-04-15T08:44:55;9.70;99.90
53045;DHT22;38930;52.766;6.884;2023-04-15T08:47:25;9.70;99.90
53045;DHT22;38930;52.766;6.884;2023-04-15T08:49:52;9.80;99.90
53045;DHT22;38930;52.766;6.884;2023-04-15T08:52:19;9.80;99.90
53045;DHT22;38930;52.766;6.884;2023-04-15T08:54:46;9.70;99.90
53045;DHT22;38930;52.766;6.884;2023-04-15T08:57:13;10.20;99.90
53045;DHT22;38930;52.766;6.884;2023-04-15T08:59:40;9.70;99.90
53045;DHT22;38930;52.766;6.884;2023-04-15T09:02:06;9.70;99.90
53045;DHT22;38930;52.766;6.884;2023-04-15T09:04:32;9.70;99.90
53045;DHT22;38930;52.766;6.884;2023-04-15T09:06:58;9.60;99.90
53045;DHT22;38930;52.766;6.884;2023-04-15T09:09:24;9.50;99.90
53045;DHT22;38930;52.766;6.884;2023-04-15T09:11:49;9.50;99.90
53045;DHT22;38930;52.766;6.884;2023-04-15T09:14:15;10.10;99.90
53045;DHT22;38930;52.766;6.884;2023-04-15T09:17:01;9.60;99.90
53045;DHT22;38930;52.766;6.884;2023-04-15T09:19:27;9.60;99.90
53045;DHT22;38930;52.766;6.884;2023-04-15T09:21:54;9.60;99.90
53045;DHT22;38930;52.766;6.884;2023-04-15T09:24:21;9.60;99.90
53045;DHT22;38930;52.766;6.884;2023-04-15T09:26:47;9.60;99.90
53045;DHT22;38930;52.766;6.884;2023-04-15T09:29:16;9.70;99.90
53045;DHT22;38930;52.766;6.884;2023-04-15T09:31:43;9.70;99.90
53045;DHT22;38930;52.766;6.884;2023-04-15T09:34:09;9.60;99.90
53045;DHT22;38930;52.766;6.884;2023-04-15T09:36:54;9.70;99.90
53045;DHT22;38930;52.766;6.884;2023-04-15T09:39:21;9.60;99.90
53045;DHT22;38930;52.766;6.884;2023-04-15T09:42:02;9.60;99.90
53045;DHT22;38930;52.766;6.884;2023-04-15T09:44:28;9.70;99.90
53045;DHT22;38930;52.766;6.884;2023-04-15T09:46:54;10.10;99.90
53045;DHT22;38930;52.766;6.884;2023-04-15T09:49:22;10.00;99.90
53045;DHT22;38930;52.766;6.884;2023-04-15T09:51:48;10.10;99.90
53045;DHT22;38930;52.766;6.884;2023-04-15T09:54:18;10.20;99.90
53045;DHT22;38930;52.766;6.884;2023-04-15T09:56:45;10.20;99.90
53045;DHT22;38930;52.766;6.884;2023-04-15T09:59:11;10.00;99.90
53045;DHT22;38930;52.766;6.884;2023-04-15T10:01:37;9.90;99.90
53045;DHT22;38930;52.766;6.884;2023-04-15T10:04:05;9.80;99.90
53045;DHT22;38930;52.766;6.884;2023-04-15T10:06:31;9.90;99.90
53045;DHT22;38930;52.766;6.884;2023-04-15T10:08:58;9.90;99.90
53045;DHT22;38930;52.766;6.884;2023-04-15T10:11:27;10.00;99.90
53045;DHT22;38930;52.766;6.884;2023-04-15T10:13:53;10.00;99.90
53045;DHT22;38930;52.766;6.884;2023-04-15T10:16:20;10.60;99.90
53045;DHT22;38930;52.766;6.884;2023-04-15T10:18:53;9.80;99.90
53045;DHT22;38930;52.766;6.884;2023-04-15T10:21:20;9.70;99.90
53045;DHT22;38930;52.766;6.884;2023-04-15T10:23:47;9.70;99.90
53045;DHT22;38930;52.766;6.884;2023-04-15T10:26:13;9.70;99.90
53045;DHT22;38930;52.766;6.884;2023-04-15T10:28:40;9.70;99.90
53045;DHT22;38930;52.766;6.884;2023-04-15T10:31:06;9.70;99.90
53045;DHT22;38930;52.766;6.884;2023-04-15T10:33:32;9.70;99.90
53045;DHT22;38930;52.766;6.884;2023-04-15T10:36:00;9.80;99.90
53045;DHT22;38930;52.766;6.884;2023-04-15T10:38:42;9.70;99.90
53045;DHT22;38930;52.766;6.884;2023-04-15T10:41:25;9.80;99.90
53045;DHT22;38930;52.766;6.884;2023-04-15T10:43:59;9.90;99.90
53045;DHT22;38930;52.766;6.884;2023-04-15T10:46:44;9.80;99.90
53045;DHT22;38930;52.766;6.884;2023-04-15T10:49:23;10.20;99.90
53045;DHT22;38930;52.766;6.884;2023-04-15T10:51:57;9.80;99.90
53045;DHT22;38930;52.766;6.884;2023-04-15T10:59:32;9.80;99.90
53045;DHT22;38930;52.766;6.884;2023-04-15T11:04:57;9.70;99.90
53045;DHT22;38930;52.766;6.884;2023-04-15T11:07:52;9.70;99.90
53045;DHT22;38930;52.766;6.884;2023-04-15T11:13:02;9.60;99.90
53045;DHT22;38930;52.766;6.884;2023-04-15T11:15:42;9.70;99.90
53045;DHT22;38930;52.766;6.884;2023-04-15T11:20:36;9.70;99.90
53045;DHT22;38930;52.766;6.884;2023-04-15T11:23:03;10.20;99.90
53045;DHT22;38930;52.766;6.884;2023-04-15T11:25:34;9.80;99.90
53045;DHT22;38930;52.766;6.884;2023-04-15T11:28:01;9.80;99.90
53045;DHT22;38930;52.766;6.884;2023-04-15T11:30:30;9.70;99.90
53045;DHT22;38930;52.766;6.884;2023-04-15T11:33:01;9.80;99.90
53045;DHT22;38930;52.766;6.884;2023-04-15T11:35:28;9.80;99.90
53045;DHT22;38930;52.766;6.884;2023-04-15T11:37:53;9.70;99.90
53045;DHT22;38930;52.766;6.884;2023-04-15T11:40:27;9.80;99.90
53045;DHT22;38930;52.766;6.884;2023-04-15T11:43:13;10.20;99.90
53045;DHT22;38930;52.766;6.884;2023-04-15T11:45:54;9.90;99.90
53045;DHT22;38930;52.766;6.884;2023-04-15T11:48:32;9.90;99.90
53045;DHT22;38930;52.766;6.884;2023-04-15T11:50:59;9.90;99.90
53045;DHT22;38930;52.766;6.884;2023-04-15T11:56:01;9.90;99.90
53045;DHT22;38930;52.766;6.884;2023-04-15T11:58:28;10.00;99.90
53045;DHT22;38930;52.766;6.884;2023-04-15T12:00:59;9.90;99.90
53045;DHT22;38930;52.766;6.884;2023-04-15T12:03:26;10.10;99.90
53045;DHT22;38930;52.766;6.884;2023-04-15T12:13:47;10.10;99.90
53045;DHT22;38930;52.766;6.884;2023-04-15T12:16:17;10.20;99.90
53045;DHT22;38930;52.766;6.884;2023-04-15T12:18:49;10.10;99.90
53045;DHT22;38930;52.766;6.884;2023-04-15T12:21:18;10.00;99.90
53045;DHT22;38930;52.766;6.884;2023-04-15T12:23:51;10.00;99.90
53045;DHT22;38930;52.766;6.884;2023-04-15T12:26:18;10.00;99.90
53045;DHT22;38930;52.766;6.884;2023-04-15T12:29:05;10.10;99.90
53045;DHT22;38930;52.766;6.884;2023-04-15T12:31:33;10.10;99.90
53045;DHT22;38930;52.766;6.884;2023-04-15T12:33:59;10.00;99.90
53045;DHT22;38930;52.766;6.884;2023-04-15T12:36:26;9.70;99.90
53045;DHT22;38930;52.766;6.884;2023-04-15T12:38:52;9.80;99.90
53045;DHT22;38930;52.766;6.884;2023-04-15T12:41:18;9.70;99.90
53045;DHT22;38930;52.766;6.884;2023-04-15T12:43:44;9.60;99.90
53045;DHT22;38930;52.766;6.884;2023-04-15T12:46:14;9.60;99.90
53045;DHT22;38930;52.766;6.884;2023-04-15T12:48:40;9.60;99.90
53045;DHT22;38930;52.766;6.884;2023-04-15T12:51:06;9.50;99.90
53045;DHT22;38930;52.766;6.884;2023-04-15T12:53:31;9.50;99.90
53045;DHT22;38930;52.766;6.884;2023-04-15T12:55:57;9.40;99.90
53045;DHT22;38930;52.766;6.884;2023-04-15T12:58:22;9.40;99.90
53045;DHT22;38930;52.766;6.884;2023-04-15T13:00:48;9.40;99.90
53045;DHT22;38930;52.766;6.884;2023-04-15T13:03:14;9.40;99.90
53045;DHT22;38930;52.766;6.884;2023-04-15T13:05:41;9.40;99.90
53045;DHT22;38930;52.766;6.884;2023-04-15T13:08:07;9.20;99.90
53045;DHT22;38930;52.766;6.884;2023-04-15T13:10:34;9.70;99.90
53045;DHT22;38930;52.766;6.884;2023-04-15T13:13:01;9.20;99.90
53045;DHT22;38930;52.766;6.884;2023-04-15T13:15:28;9.50;99.90
53045;DHT22;38930;52.766;6.884;2023-04-15T13:17:53;9.10;99.90
53045;DHT22;38930;52.766;6.884;2023-04-15T13:20:19;9.10;99.90
53045;DHT22;38930;52.766;6.884;2023-04-15T13:22:45;9.10;99.90
53045;DHT22;38930;52.766;6.884;2023-04-15T13:25:10;9.10;99.90
53045;DHT22;38930;52.766;6.884;2023-04-15T13:27:36;9.00;99.90
53045;DHT22;38930;52.766;6.884;2023-04-15T13:30:03;8.90;99.90
53045;DHT22;38930;52.766;6.884;2023-04-15T13:32:29;9.00;99.90
53045;DHT22;38930;52.766;6.884;2023-04-15T13:34:54;9.80;99.90
53045;DHT22;38930;52.766;6.884;2023-04-15T13:37:28;9.00;99.90
53045;DHT22;38930;52.766;6.884;2023-04-15T13:39:54;9.00;99.90
53045;DHT22;38930;52.766;6.884;2023-04-15T13:42:21;9.00;99.90
53045;DHT22;38930;52.766;6.884;2023-04-15T13:44:46;9.00;99.90
53045;DHT22;38930;52.766;6.884;2023-04-15T13:47:12;9.00;99.90
53045;DHT22;38930;52.766;6.884;2023-04-15T13:49:40;9.00;99.90
53045;DHT22;38930;52.766;6.884;2023-04-15T13:52:06;9.00;99.90
53045;DHT22;38930;52.766;6.884;2023-04-15T13:54:31;9.00;99.90
53045;DHT22;38930;52.766;6.884;2023-04-15T13:56:57;9.10;99.90
53045;DHT22;38930;52.766;6.884;2023-04-15T13:59:23;9.00;99.90
53045;DHT22;38930;52.766;6.884;2023-04-15T14:01:48;9.00;99.90
53045;DHT22;38930;52.766;6.884;2023-04-15T14:04:14;9.70;99.90
53045;DHT22;38930;52.766;6.884;2023-04-15T14:06:39;9.00;99.90
53045;DHT22;38930;52.766;6.884;2023-04-15T14:09:05;9.10;99.90
53045;DHT22;38930;52.766;6.884;2023-04-15T14:11:31;9.00;99.90
53045;DHT22;38930;52.766;6.884;2023-04-15T14:13:57;9.00;99.90
53045;DHT22;38930;52.766;6.884;2023-04-15T14:16:22;8.90;99.90
53045;DHT22;38930;52.766;6.884;2023-04-15T14:18:48;9.20;99.90
53045;DHT22;38930;52.766;6.884;2023-04-15T14:21:13;8.90;99.90
53045;DHT22;38930;52.766;6.884;2023-04-15T14:23:40;8.90;99.90
53045;DHT22;38930;52.766;6.884;2023-04-15T14:26:05;8.90;99.90
53045;DHT22;38930;52.766;6.884;2023-04-15T14:28:31;8.80;99.90
53045;DHT22;38930;52.766;6.884;2023-04-15T14:30:56;8.80;99.90
53045;DHT22;38930;52.766;6.884;2023-04-15T14:33:22;8.80;99.90
53045;DHT22;38930;52.766;6.884;2023-04-15T14:35:49;8.80;99.90
53045;DHT22;38930;52.766;6.884;2023-04-15T14:38:15;8.70;99.90
53045;DHT22;38930;52.766;6.884;2023-04-15T14:40:41;8.70;99.90
53045;DHT22;38930;52.766;6.884;2023-04-15T14:43:07;8.70;99.90
53045;DHT22;38930;52.766;6.884;2023-04-15T14:45:32;9.20;99.90
53045;DHT22;38930;52.766;6.884;2023-04-15T14:47:59;8.70;99.90
53045;DHT22;38930;52.766;6.884;2023-04-15T14:50:24;8.70;99.90
53045;DHT22;38930;52.766;6.884;2023-04-15T14:52:50;8.60;99.90
53045;DHT22;38930;52.766;6.884;2023-04-15T14:55:15;8.60;99.90
53045;DHT22;38930;52.766;6.884;2023-04-15T14:57:41;8.60;99.90
53045;DHT22;38930;52.766;6.884;2023-04-15T15:00:08;8.60;99.90
53045;DHT22;38930;52.766;6.884;2023-04-15T15:02:35;8.60;99.90
53045;DHT22;38930;52.766;6.884;2023-04-15T15:05:01;8.50;99.90
53045;DHT22;38930;52.766;6.884;2023-04-15T15:07:28;8.50;99.90
53045;DHT22;38930;52.766;6.884;2023-04-15T15:09:54;8.50;99.90
53045;DHT22;38930;52.766;6.884;2023-04-15T15:12:20;8.50;99.90
53045;DHT22;38930;52.766;6.884;2023-04-15T15:14:49;8.50;99.90
53045;DHT22;38930;52.766;6.884;2023-04-15T15:17:15;8.40;99.90
53045;DHT22;38930;52.766;6.884;2023-04-15T15:19:41;8.50;99.90
53045;DHT22;38930;52.766;6.884;2023-04-15T15:22:08;8.50;99.90
53045;DHT22;38930;52.766;6.884;2023-04-15T15:24:35;8.40;99.90
53045;DHT22;38930;52.766;6.884;2023-04-15T15:27:01;8.40;99.90
53045;DHT22;38930;52.766;6.884;2023-04-15T15:29:27;8.40;99.90
53045;DHT22;38930;52.766;6.884;2023-04-15T15:31:54;8.40;99.90
53045;DHT22;38930;52.766;6.884;2023-04-15T15:34:19;8.40;99.90
53045;DHT22;38930;52.766;6.884;2023-04-15T15:36:45;8.40;99.90
53045;DHT22;38930;52.766;6.884;2023-04-15T15:39:10;8.40;99.90
53045;DHT22;38930;52.766;6.884;2023-04-15T15:41:36;8.90;99.90
53045;DHT22;38930;52.766;6.884;2023-04-15T15:44:01;8.40;99.90
53045;DHT22;38930;52.766;6.884;2023-04-15T15:46:27;8.40;99.90
53045;DHT22;38930;52.766;6.884;2023-04-15T15:48:55;8.40;99.90
53045;DHT22;38930;52.766;6.884;2023-04-15T15:51:21;8.40;99.90
53045;DHT22;38930;52.766;6.884;2023-04-15T15:53:47;8.40;99.90
53045;DHT22;38930;52.766;6.884;2023-04-15T15:56:12;8.60;99.90
53045;DHT22;38930;52.766;6.884;2023-04-15T15:58:38;9.30;99.90
53045;DHT22;38930;52.766;6.884;2023-04-15T16:01:03;8.40;99.90
53045;DHT22;38930;52.766;6.884;2023-04-15T16:03:30;8.40;99.90
53045;DHT22;38930;52.766;6.884;2023-04-15T16:05:55;8.70;99.90